Time;durP1;ratioP1;P1;durP2;ratioP2;P2;SDS_P1;SDS_P2;PMS_P1;PMS_P2;Temp;Humidity;BMP_temperature;BMP_pressure;BME280_temperature;BME280_humidity;BME280_pressure;Samples;Min_cycle;Max_cycle;Signal;HPM_P1;HPM_P2
2022/07/28 00:02:20;;;;;;;3.35;1.55;;;18.70;82.00;;;;;;5072652;28;20359;-71
2022/07/28 00:04:45;;;;;;;2.58;1.10;;;18.70;81.50;;;;;;5070418;28;20060;-72
2022/07/28 00:07:11;;;;;;;5.28;1.55;;;18.70;81.80;;;;;;5072398;28;20111;-71
2022/07/28 00:09:36;;;;;;;3.03;1.50;;;18.60;82.10;;;;;;5066007;28;20114;-71
2022/07/28 00:12:03;;;;;;;4.38;1.67;;;18.50;81.60;;;;;;5064159;28;20037;-70
2022/07/28 00:14:29;;;;;;;7.57;1.40;;;18.60;81.70;;;;;;5068093;28;20054;-71
2022/07/28 00:16:55;;;;;;;4.60;1.20;;;18.60;81.50;;;;;;5068923;28;20493;-70
2022/07/28 00:19:20;;;;;;;9.27;1.40;;;18.50;81.70;;;;;;5070744;28;20083;-70
2022/07/28 00:21:46;;;;;;;2.38;1.30;;;18.60;96.80;;;;;;5070438;28;20100;-71
2022/07/28 00:24:12;;;;;;;4.40;1.52;;;18.50;97.10;;;;;;5067990;28;20035;-71
2022/07/28 00:26:38;;;;;;;4.53;1.48;;;18.50;97.00;;;;;;5070054;28;20029;-72
2022/07/28 00:29:04;;;;;;;3.47;1.45;;;18.40;97.10;;;;;;5065592;28;20520;-71
2022/07/28 00:31:30;;;;;;;5.03;1.38;;;18.30;98.00;;;;;;5069364;28;20020;-71
2022/07/28 00:33:56;;;;;;;2.35;1.40;;;18.30;99.80;;;;;;5070993;28;20522;-71
2022/07/28 00:36:21;;;;;;;2.33;1.23;;;18.20;98.10;;;;;;5069056;28;20074;-71
2022/07/28 00:38:47;;;;;;;2.60;1.30;;;18.20;98.90;;;;;;5066347;28;20467;-71
2022/07/28 00:41:12;;;;;;;2.33;1.52;;;18.10;90.90;;;;;;5071211;28;20032;-71
2022/07/28 00:43:41;;;;;;;4.35;1.65;;;;;;;;;;5071389;28;20024;-72
2022/07/28 00:46:07;;;;;;;2.65;1.65;;;18.00;99.50;;;;;;5066386;28;20039;-71
2022/07/28 00:48:39;;;;;;;2.15;1.30;;;17.90;86.50;;;;;;5062639;28;20463;-70
2022/07/28 00:51:09;;;;;;;3.20;1.55;;;17.90;86.80;;;;;;5068504;28;20032;-70
2022/07/28 00:53:36;;;;;;;2.60;1.33;;;17.90;96.40;;;;;;5069140;28;20024;-70
2022/07/28 00:56:01;;;;;;;2.95;1.30;;;17.80;97.60;;;;;;5068813;28;20036;-70
2022/07/28 00:58:28;;;;;;;3.97;2.00;;;17.80;98.40;;;;;;5067384;28;20508;-71
2022/07/28 01:00:54;;;;;;;4.10;1.65;;;17.80;98.70;;;;;;5068990;28;20032;-71
2022/07/28 01:03:20;;;;;;;4.55;1.45;;;17.70;98.90;;;;;;5068602;28;20028;-72
2022/07/28 01:06:06;;;;;;;5.85;1.52;;;17.70;98.50;;;;;;5071287;28;20024;-71
2022/07/28 01:08:58;;;;;;;4.45;1.40;;;17.60;98.60;;;;;;5052185;28;20041;-71
2022/07/28 01:11:36;;;;;;;2.17;1.38;;;17.60;98.40;;;;;;5069748;28;20524;-72
2022/07/28 01:14:17;;;;;;;3.05;1.38;;;17.50;98.60;;;;;;5044424;28;20032;-72
2022/07/28 01:17:02;;;;;;;3.45;1.52;;;17.40;99.00;;;;;;5064063;28;20082;-72
2022/07/28 01:19:47;;;;;;;2.90;1.23;;;17.40;99.30;;;;;;5061345;28;20131;-71
2022/07/28 01:22:18;;;;;;;4.45;1.45;;;17.40;99.40;;;;;;5085870;28;20032;-72
2022/07/28 01:24:53;;;;;;;2.22;1.60;;;17.30;99.40;;;;;;5071568;28;20020;-71
2022/07/28 01:27:44;;;;;;;2.75;1.60;;;17.20;99.30;;;;;;5070002;28;20113;-72
2022/07/28 01:30:22;;;;;;;4.57;1.33;;;17.20;99.50;;;;;;5067327;28;20036;-71
2022/07/28 01:32:56;;;;;;;2.53;1.23;;;17.10;99.70;;;;;;5063397;28;20492;-72
2022/07/28 01:35:26;;;;;;;2.95;1.60;;;17.10;99.50;;;;;;5067468;28;20029;-72
2022/07/28 01:37:56;;;;;;;7.38;1.48;;;17.10;99.60;;;;;;5066238;28;20037;-71
2022/07/28 01:40:26;;;;;;;3.90;1.45;;;17.10;99.00;;;;;;5067734;28;20028;-72
2022/07/28 01:42:57;;;;;;;3.45;1.63;;;17.00;99.40;;;;;;5067633;28;20103;-71
2022/07/28 01:45:23;;;;;;;3.60;1.52;;;17.00;99.40;;;;;;5068451;28;20032;-72
2022/07/28 01:47:51;;;;;;;3.55;1.55;;;17.00;99.40;;;;;;5066445;28;20037;-72
2022/07/28 01:50:20;;;;;;;3.53;1.67;;;;;;;;;;5066598;28;20044;-72
2022/07/28 01:52:46;;;;;;;4.90;1.40;;;;;;;;;;5069681;28;20043;-73
2022/07/28 01:55:13;;;;;;;6.53;2.10;;;;;;;;;;5068168;28;20562;-72
2022/07/28 01:57:40;;;;;;;4.63;1.65;;;;;;;;;;5082834;28;20024;-72
2022/07/28 02:00:09;;;;;;;4.45;1.50;;;;;;;;;;5069225;28;20060;-71
2022/07/28 02:02:36;;;;;;;2.83;1.60;;;;;;;;;;5063129;28;20102;-71
2022/07/28 02:05:03;;;;;;;3.40;1.50;;;;;;;;;;5060645;28;20044;-71
2022/07/28 02:07:29;;;;;;;4.53;1.50;;;;;;;;;;5069270;28;20025;-71
2022/07/28 02:09:57;;;;;;;6.65;1.75;;;;;;;;;;5069870;28;20089;-70
2022/07/28 02:12:24;;;;;;;3.55;1.67;;;;;;;;;;5068642;28;20021;-72
2022/07/28 02:14:51;;;;;;;3.70;1.40;;;;;;;;;;5065984;28;20028;-71
2022/07/28 02:17:19;;;;;;;2.25;1.42;;;;;;;;;;5062979;28;20029;-72
2022/07/28 02:19:45;;;;;;;4.53;1.33;;;;;;;;;;5070800;28;20127;-72
2022/07/28 02:22:12;;;;;;;5.88;1.75;;;;;;;;;;5064483;28;20029;-71
2022/07/28 02:24:38;;;;;;;4.43;1.73;;;;;;;;;;5067863;28;20485;-71
2022/07/28 02:27:06;;;;;;;4.72;1.38;;;;;;;;;;5069112;28;20198;-71
2022/07/28 02:29:35;;;;;;;1.73;1.55;;;;;;;;;;5063608;28;20024;-71
2022/07/28 02:32:11;;;;;;;2.33;1.58;;;;;;;;;;5070119;28;20055;-70
2022/07/28 02:34:37;;;;;;;2.55;1.40;;;;;;;;;;5070858;28;20140;-72
2022/07/28 02:37:04;;;;;;;4.57;1.63;;;;;;;;;;5063889;28;20016;-72
2022/07/28 02:39:32;;;;;;;3.92;1.50;;;;;;;;;;5068416;28;20032;-70
2022/07/28 02:42:05;;;;;;;3.80;1.88;;;16.50;92.50;;;;;;5069466;28;20044;-71
2022/07/28 02:44:38;;;;;;;4.43;1.55;;;16.30;92.90;;;;;;5070088;28;20025;-71
2022/07/28 02:47:07;;;;;;;3.22;1.65;;;16.30;93.30;;;;;;5066351;28;20024;-72
2022/07/28 02:49:35;;;;;;;4.00;1.70;;;16.30;93.60;;;;;;5062045;28;20123;-71
2022/07/28 02:52:03;;;;;;;3.58;1.30;;;16.30;93.80;;;;;;5070029;28;20033;-71
2022/07/28 02:54:31;;;;;;;3.35;1.88;;;16.30;94.10;;;;;;5069628;28;20025;-71
2022/07/28 02:56:58;;;;;;;3.63;1.50;;;16.20;93.70;;;;;;5063905;28;20118;-71
2022/07/28 02:59:26;;;;;;;2.63;1.50;;;16.20;93.90;;;;;;5069315;28;20028;-72
2022/07/28 03:01:53;;;;;;;3.58;1.70;;;16.10;94.00;;;;;;5069019;28;20028;-71
2022/07/28 03:04:55;;;;;;;3.50;1.60;;;16.10;94.10;;;;;;5068233;28;20028;-72
2022/07/28 03:07:05;;;;;;;2.70;1.63;;;16.10;94.20;;;;;;5066424;28;20024;-71
2022/07/28 03:09:41;;;;;;;4.35;1.65;;;16.10;94.40;;;;;;5068097;28;20111;-71
2022/07/28 03:12:07;;;;;;;4.57;2.13;;;16.10;94.50;;;;;;5068434;28;20457;-71
2022/07/28 03:14:33;;;;;;;2.70;1.73;;;16.10;94.60;;;;;;5070703;28;20029;-71
2022/07/28 03:16:58;;;;;;;4.32;1.58;;;16.10;94.70;;;;;;5058085;28;20385;-71
2022/07/28 03:19:24;;;;;;;5.65;2.10;;;16.10;94.70;;;;;;5070187;28;20485;-71
2022/07/28 03:21:51;;;;;;;4.22;1.63;;;16.10;94.80;;;;;;5069083;28;20082;-71
2022/07/28 03:24:19;;;;;;;2.70;1.55;;;16.00;95.00;;;;;;5062177;28;20029;-71
2022/07/28 03:26:54;;;;;;;2.30;1.48;;;16.00;95.20;;;;;;5064492;28;20028;-70
2022/07/28 03:29:21;;;;;;;4.90;1.50;;;16.00;95.30;;;;;;5067475;28;20749;-71
2022/07/28 03:31:47;;;;;;;2.97;1.83;;;16.00;95.70;;;;;;5070280;28;20449;-71
2022/07/28 03:34:14;;;;;;;3.05;1.30;;;15.90;95.70;;;;;;5069894;28;20503;-71
2022/07/28 03:36:44;;;;;;;6.32;1.58;;;15.90;95.80;;;;;;5067615;28;20040;-72
2022/07/28 03:39:10;;;;;;;5.78;1.70;;;15.90;96.10;;;;;;5067646;28;20271;-71
2022/07/28 03:41:38;;;;;;;3.67;1.80;;;15.90;96.30;;;;;;5070093;28;20097;-71
2022/07/28 03:44:04;;;;;;;6.57;1.88;;;15.90;96.30;;;;;;5069601;28;20078;-71
2022/07/28 03:46:31;;;;;;;3.08;1.77;;;15.90;96.60;;;;;;5062060;28;20078;-71
2022/07/28 03:48:56;;;;;;;3.67;1.60;;;15.90;96.70;;;;;;5069136;28;20052;-71
2022/07/28 03:51:24;;;;;;;4.97;2.20;;;15.90;96.70;;;;;;5064794;28;20032;-71
2022/07/28 03:53:50;;;;;;;5.93;2.40;;;15.90;96.80;;;;;;5072351;28;20025;-71
2022/07/28 03:56:16;;;;;;;4.47;2.20;;;15.90;96.90;;;;;;5069406;28;20028;-71
2022/07/28 03:58:41;;;;;;;5.85;1.85;;;15.90;97.00;;;;;;5069412;28;20386;-71
2022/07/28 04:01:07;;;;;;;2.65;1.30;;;15.90;97.00;;;;;;5070475;28;20036;-71
2022/07/28 04:03:33;;;;;;;3.95;1.48;;;15.90;97.10;;;;;;5066405;28;20031;-71
2022/07/28 04:05:58;;;;;;;2.05;1.42;;;15.90;97.10;;;;;;5067955;28;20025;-69
2022/07/28 04:08:24;;;;;;;4.30;1.63;;;15.90;97.10;;;;;;5070949;28;20048;-69
2022/07/28 04:10:50;;;;;;;4.05;1.60;;;15.80;97.30;;;;;;5069871;28;20024;-69
2022/07/28 04:13:15;;;;;;;6.25;1.92;;;15.80;97.50;;;;;;5072057;28;20171;-71
2022/07/28 04:15:41;;;;;;;2.60;1.52;;;15.80;97.50;;;;;;5070318;28;20029;-73
2022/07/28 04:18:07;;;;;;;3.25;1.50;;;15.90;97.50;;;;;;5071556;28;20028;-71
2022/07/28 04:20:32;;;;;;;5.57;2.00;;;15.90;97.40;;;;;;5069076;28;20123;-73
2022/07/28 04:22:58;;;;;;;8.30;2.50;;;15.90;97.20;;;;;;5069995;28;20028;-74
2022/07/28 04:25:26;;;;;;;4.18;1.98;;;16.00;97.20;;;;;;5070201;28;20032;-74
2022/07/28 04:27:52;;;;;;;5.55;2.00;;;16.00;97.40;;;;;;5068704;28;20036;-76
2022/07/28 04:30:20;;;;;;;4.30;2.38;;;16.10;97.60;;;;;;5067700;28;20047;-72
2022/07/28 04:32:48;;;;;;;3.67;1.60;;;16.10;97.60;;;;;;5070217;28;20028;-71
2022/07/28 04:35:15;;;;;;;6.85;2.00;;;16.10;97.50;;;;;;5068994;28;20028;-72
2022/07/28 04:37:41;;;;;;;3.80;2.13;;;16.20;97.50;;;;;;5068768;28;20028;-75
2022/07/28 04:40:09;;;;;;;2.08;1.50;;;16.30;97.70;;;;;;5069563;28;20036;-78
2022/07/28 04:42:37;;;;;;;4.35;2.20;;;16.30;97.30;;;;;;5071304;28;20078;-71
2022/07/28 04:45:04;;;;;;;1.95;1.67;;;16.40;97.20;;;;;;5066693;28;20068;-74
2022/07/28 04:47:30;;;;;;;7.78;2.25;;;16.40;97.00;;;;;;5069062;28;20371;-72
2022/07/28 04:49:56;;;;;;;5.38;2.05;;;16.50;96.90;;;;;;5066020;28;20112;-71
2022/07/28 04:52:22;;;;;;;7.13;1.90;;;16.50;96.90;;;;;;5070150;28;20025;-71
2022/07/28 04:54:49;;;;;;;3.65;1.70;;;16.60;97.00;;;;;;5065380;28;20036;-73
2022/07/28 04:57:14;;;;;;;4.00;1.90;;;16.60;97.00;;;;;;5067894;28;20070;-73
2022/07/28 04:59:40;;;;;;;6.32;1.50;;;16.70;96.80;;;;;;5069062;28;20028;-72
2022/07/28 05:02:06;;;;;;;5.80;1.70;;;16.70;96.30;;;;;;5067369;28;20120;-72
2022/07/28 05:04:32;;;;;;;3.55;1.92;;;16.80;96.10;;;;;;5069929;28;20531;-72
2022/07/28 05:06:58;;;;;;;4.07;2.03;;;16.80;95.80;;;;;;5068305;28;20073;-73
2022/07/28 05:09:24;;;;;;;4.38;1.80;;;16.90;95.90;;;;;;5069055;28;20044;-72
2022/07/28 05:11:49;;;;;;;4.60;1.92;;;17.00;95.50;;;;;;5067925;28;20028;-72
2022/07/28 05:14:16;;;;;;;4.18;2.00;;;17.10;95.50;;;;;;5070523;28;20063;-75
2022/07/28 05:16:42;;;;;;;3.05;1.83;;;17.10;95.30;;;;;;5066137;28;20021;-83
2022/07/28 05:19:08;;;;;;;7.38;2.38;;;17.20;95.10;;;;;;5069427;28;20240;-76
2022/07/28 05:21:33;;;;;;;4.57;1.73;;;17.20;95.10;;;;;;5071892;28;20078;-76
2022/07/28 05:23:59;;;;;;;4.72;2.00;;;17.30;94.80;;;;;;5069171;28;20472;-72
2022/07/28 05:26:27;;;;;;;7.90;1.90;;;17.40;94.80;;;;;;5065083;28;20031;-73
2022/07/28 05:28:53;;;;;;;8.82;2.35;;;17.40;94.50;;;;;;5067672;28;20120;-74
2022/07/28 05:31:18;;;;;;;10.38;2.00;;;17.50;94.50;;;;;;5070997;28;20107;-74
2022/07/28 05:33:44;;;;;;;3.50;1.80;;;17.50;94.50;;;;;;5070991;28;20104;-74
2022/07/28 05:36:10;;;;;;;4.90;2.15;;;17.60;94.10;;;;;;5069968;28;20060;-73
2022/07/28 05:38:36;;;;;;;5.15;2.00;;;17.70;94.00;;;;;;5071773;28;20056;-73
2022/07/28 05:41:02;;;;;;;4.60;1.88;;;17.80;93.90;;;;;;5076597;28;20477;-73
2022/07/28 05:43:27;;;;;;;4.40;2.22;;;17.80;94.00;;;;;;5072509;28;20028;-73
2022/07/28 05:45:53;;;;;;;4.50;1.98;;;17.90;94.10;;;;;;5066634;28;20028;-74
2022/07/28 05:48:19;;;;;;;10.90;2.60;;;18.00;94.00;;;;;;5062737;28;20033;-73
2022/07/28 05:50:45;;;;;;;8.68;2.40;;;18.00;94.10;;;;;;5058620;28;20025;-73
2022/07/28 05:53:11;;;;;;;4.07;2.03;;;18.20;93.70;;;;;;5066893;28;20359;-74
2022/07/28 05:55:37;;;;;;;5.55;2.42;;;18.30;93.70;;;;;;5068348;28;20040;-75
2022/07/28 05:58:02;;;;;;;8.68;2.63;;;18.40;93.30;;;;;;5066440;28;20026;-73
2022/07/28 06:00:28;;;;;;;9.38;2.65;;;18.50;93.20;;;;;;5071171;28;20035;-76
2022/07/28 06:02:54;;;;;;;8.15;3.00;;;18.50;93.40;;;;;;5071470;28;20115;-77
2022/07/28 06:05:22;;;;;;;7.95;2.53;;;18.50;93.30;;;;;;5063619;28;20453;-75
2022/07/28 06:07:49;;;;;;;6.25;2.17;;;18.60;93.20;;;;;;5066489;28;20032;-74
2022/07/28 06:10:18;;;;;;;7.05;2.45;;;18.70;93.20;;;;;;5069703;28;20058;-75
2022/07/28 06:12:46;;;;;;;13.10;2.75;;;18.80;93.00;;;;;;5069805;28;20052;-74
2022/07/28 06:15:17;;;;;;;5.93;2.67;;;18.90;92.90;;;;;;5062730;28;20024;-75
2022/07/28 06:17:43;;;;;;;7.03;2.63;;;19.10;92.70;;;;;;5066927;28;20028;-76
2022/07/28 06:20:10;;;;;;;5.57;2.72;;;19.20;92.70;;;;;;5064582;28;20071;-75
2022/07/28 06:22:43;;;;;;;6.03;2.85;;;19.20;92.40;;;;;;5071083;28;20402;-75
2022/07/28 06:25:17;;;;;;;7.60;2.17;;;19.20;92.60;;;;;;5069334;28;20028;-74
2022/07/28 06:27:47;;;;;;;8.13;2.50;;;19.30;92.50;;;;;;5068009;28;20116;-72
2022/07/28 06:30:14;;;;;;;5.15;2.42;;;19.30;92.30;;;;;;5048406;28;20036;-73
2022/07/28 06:32:40;;;;;;;5.85;2.70;;;19.40;92.60;;;;;;5060344;28;20036;-73
2022/07/28 06:35:06;;;;;;;4.85;2.85;;;19.50;92.40;;;;;;5047029;28;20064;-73
2022/07/28 06:37:32;;;;;;;6.63;3.13;;;19.50;92.50;;;;;;5065819;28;20033;-75
2022/07/28 06:39:58;;;;;;;4.07;2.70;;;19.60;92.40;;;;;;5062868;28;20089;-75
2022/07/28 06:42:24;;;;;;;8.60;3.15;;;19.70;92.50;;;;;;5066207;28;20036;-75
2022/07/28 06:44:50;;;;;;;5.43;3.45;;;19.70;92.60;;;;;;5065088;28;20032;-77
2022/07/28 06:47:17;;;;;;;8.50;3.33;;;19.80;92.60;;;;;;5067927;28;20028;-75
2022/07/28 06:49:42;;;;;;;5.95;3.42;;;19.90;92.70;;;;;;5068183;28;20044;-74
2022/07/28 06:52:08;;;;;;;9.30;3.42;;;20.10;92.70;;;;;;5065308;28;20032;-73
2022/07/28 06:54:34;;;;;;;6.65;3.67;;;20.20;92.20;;;;;;5066079;28;20035;-74
2022/07/28 06:56:59;;;;;;;3.58;2.90;;;20.30;92.20;;;;;;5066993;28;20104;-75
2022/07/28 06:59:25;;;;;;;4.25;3.63;;;20.40;92.00;;;;;;5070418;28;20489;-73
2022/07/28 07:01:51;;;;;;;7.82;3.50;;;20.40;92.20;;;;;;5061007;28;20074;-74
2022/07/28 07:04:17;;;;;;;6.57;3.97;;;20.30;92.10;;;;;;5071105;28;21955;-74
2022/07/28 07:06:43;;;;;;;5.57;4.15;;;20.20;92.40;;;;;;5070579;28;20020;-75
2022/07/28 07:09:08;;;;;;;7.07;3.70;;;20.20;92.70;;;;;;5068495;28;20136;-75
2022/07/28 07:11:35;;;;;;;15.40;4.00;;;20.30;92.50;;;;;;5060657;28;20043;-74
2022/07/28 07:14:01;;;;;;;8.45;3.90;;;20.30;92.60;;;;;;5063206;28;20028;-76
2022/07/28 07:16:27;;;;;;;8.70;3.97;;;20.50;92.40;;;;;;5065110;28;20523;-75
2022/07/28 07:18:54;;;;;;;8.65;4.47;;;20.60;92.20;;;;;;5065942;28;20032;-76
2022/07/28 07:21:20;;;;;;;4.28;3.45;;;20.70;92.20;;;;;;5092436;28;20035;-75
2022/07/28 07:23:46;;;;;;;8.07;3.80;;;20.70;92.40;;;;;;5088684;28;20032;-76
2022/07/28 07:26:12;;;;;;;6.20;3.63;;;20.80;92.30;;;;;;5091109;28;20614;-73
2022/07/28 07:28:39;;;;;;;7.32;4.20;;;20.80;92.40;;;;;;5091331;28;20032;-74
2022/07/28 07:31:04;;;;;;;8.07;4.30;;;20.90;92.20;;;;;;5091668;28;20043;-75
2022/07/28 07:33:30;;;;;;;8.55;4.60;;;21.00;92.10;;;;;;5090480;28;20106;-74
2022/07/28 07:35:55;;;;;;;8.70;4.70;;;21.00;92.00;;;;;;5090012;28;20028;-74
2022/07/28 07:38:21;;;;;;;7.55;5.80;;;21.10;92.10;;;;;;5094876;28;20107;-74
2022/07/28 07:40:47;;;;;;;7.03;4.68;;;21.20;91.90;;;;;;5091613;28;20457;-75
2022/07/28 07:43:12;;;;;;;10.95;4.55;;;21.40;92.00;;;;;;5094195;28;20027;-74
2022/07/28 07:45:40;;;;;;;7.60;4.68;;;21.60;91.70;;;;;;5091780;28;20024;-74
2022/07/28 07:48:05;;;;;;;6.10;4.57;;;21.60;91.90;;;;;;5096851;28;20031;-76
2022/07/28 07:50:31;;;;;;;5.93;4.22;;;21.60;91.70;;;;;;5089900;28;20040;-75
2022/07/28 07:52:57;;;;;;;9.50;5.03;;;21.50;91.80;;;;;;5092848;28;20107;-75
2022/07/28 07:55:22;;;;;;;4.30;3.80;;;21.70;91.70;;;;;;5087521;28;20054;-75
2022/07/28 07:57:48;;;;;;;10.75;5.13;;;21.70;91.70;;;;;;5087459;28;20106;-74
2022/07/28 08:00:14;;;;;;;8.13;4.25;;;21.80;92.00;;;;;;5094933;28;20036;-75
2022/07/28 08:02:41;;;;;;;5.25;4.40;;;21.90;91.40;;;;;;5089400;28;20533;-74
2022/07/28 08:05:07;;;;;;;6.82;4.53;;;22.10;91.30;;;;;;5084066;28;20079;-75
2022/07/28 08:07:34;;;;;;;6.93;4.70;;;22.30;91.20;;;;;;5084421;28;20480;-75
2022/07/28 08:10:00;;;;;;;9.85;4.70;;;22.40;91.20;;;;;;5085025;28;20040;-75
2022/07/28 08:12:25;;;;;;;8.82;4.75;;;22.60;90.90;;;;;;5092652;28;20077;-74
2022/07/28 08:14:52;;;;;;;7.38;4.78;;;22.70;90.60;;;;;;5087690;28;20381;-76
2022/07/28 08:17:18;;;;;;;5.88;4.35;;;22.80;90.40;;;;;;5096530;28;20031;-74
2022/07/28 08:19:43;;;;;;;8.68;4.30;;;22.70;90.50;;;;;;5102113;28;20044;-75
2022/07/28 08:22:09;;;;;;;8.25;4.68;;;22.80;90.70;;;;;;5093369;28;20490;-74
2022/07/28 08:24:34;;;;;;;8.73;4.70;;;22.90;90.60;;;;;;5090682;28;20016;-73
2022/07/28 08:27:01;;;;;;;8.50;4.70;;;23.00;90.40;;;;;;5091942;28;20384;-73
2022/07/28 08:29:27;;;;;;;8.30;4.78;;;23.00;90.50;;;;;;5071638;28;20449;-74
2022/07/28 08:31:53;;;;;;;9.43;4.72;;;23.10;90.60;;;;;;5089662;28;20051;-76
2022/07/28 08:34:18;;;;;;;6.38;4.43;;;23.30;90.40;;;;;;5087815;28;20028;-74
2022/07/28 08:36:44;;;;;;;5.70;4.03;;;23.40;90.10;;;;;;5090284;28;20115;-75
2022/07/28 08:39:09;;;;;;;8.00;4.38;;;23.60;90.30;;;;;;5094461;28;20770;-75
2022/07/28 08:41:48;;;;;;;10.52;5.05;;;23.70;89.50;;;;;;5091591;28;20175;-74
2022/07/28 08:44:17;;;;;;;7.78;4.55;;;23.90;89.20;;;;;;5085484;28;20647;-75
2022/07/28 08:46:46;;;;;;;11.20;4.82;;;24.00;88.90;;;;;;5090352;28;20041;-74
2022/07/28 08:49:13;;;;;;;9.20;4.75;;;24.10;89.20;;;;;;5099155;28;20495;-75
2022/07/28 08:51:40;;;;;;;7.18;4.68;;;24.20;89.10;;;;;;5094101;28;20724;-75
2022/07/28 08:54:09;;;;;;;6.70;4.10;;;24.30;88.40;;;;;;5085043;28;20082;-75
2022/07/28 08:56:41;;;;;;;8.45;4.75;;;24.40;88.70;;;;;;5091857;28;20016;-75
2022/07/28 08:59:07;;;;;;;8.23;4.63;;;24.50;88.90;;;;;;5091568;28;20032;-75
2022/07/28 09:01:33;;;;;;;10.23;5.00;;;24.60;87.80;;;;;;5086737;28;20073;-74
2022/07/28 09:03:59;;;;;;;9.90;4.72;;;24.40;87.90;;;;;;5089775;28;20035;-75
2022/07/28 09:06:25;;;;;;;8.60;4.68;;;24.50;88.20;;;;;;5090371;28;20420;-74
2022/07/28 09:08:51;;;;;;;5.95;5.00;;;24.50;87.90;;;;;;5092646;28;20094;-75
2022/07/28 09:11:17;;;;;;;5.70;4.63;;;24.60;88.60;;;;;;5098023;28;20032;-74
2022/07/28 09:13:43;;;;;;;8.50;4.97;;;24.70;87.80;;;;;;5092810;28;20023;-75
2022/07/28 09:16:08;;;;;;;8.32;4.38;;;24.70;87.70;;;;;;5092330;28;20053;-74
2022/07/28 09:18:35;;;;;;;8.68;4.35;;;24.80;87.70;;;;;;5094888;28;20026;-74
2022/07/28 09:21:00;;;;;;;13.82;4.95;;;24.90;87.80;;;;;;5082348;28;20045;-74
2022/07/28 09:23:42;;;;;;;6.75;4.18;;;25.20;87.00;;;;;;5089618;28;20031;-74
2022/07/28 09:26:08;;;;;;;9.05;4.78;;;25.10;86.20;;;;;;5086086;28;20052;-74
2022/07/28 09:28:46;;;;;;;10.35;5.10;;;25.10;86.40;;;;;;5090984;28;20528;-76
2022/07/28 09:31:12;;;;;;;9.02;5.68;;;25.20;86.90;;;;;;5089913;28;20590;-74
2022/07/28 09:33:38;;;;;;;7.95;5.25;;;25.20;85.80;;;;;;5094636;28;20059;-74
2022/07/28 09:36:13;;;;;;;7.97;5.15;;;25.30;86.10;;;;;;5084848;28;20029;-76
2022/07/28 09:38:40;;;;;;;6.63;4.40;;;25.20;86.10;;;;;;5082243;28;20354;-76
2022/07/28 09:41:06;;;;;;;7.90;4.95;;;25.30;85.60;;;;;;5088818;28;20040;-75
2022/07/28 09:43:38;;;;;;;9.55;4.70;;;25.50;91.90;;;;;;5075814;28;20032;-76
2022/07/28 09:46:09;;;;;;;5.88;4.38;;;25.60;87.20;;;;;;5088619;28;20029;-74
2022/07/28 09:48:48;;;;;;;11.32;4.47;;;25.90;91.80;;;;;;5091177;28;20123;-75
2022/07/28 09:51:22;;;;;;;12.52;4.85;;;26.10;84.50;;;;;;5082116;28;20020;-74
2022/07/28 09:53:48;;;;;;;8.98;4.60;;;26.50;83.80;;;;;;5092237;28;20032;-75
2022/07/28 09:56:13;;;;;;;4.90;4.40;;;26.60;82.50;;;;;;5083646;28;20020;-73
2022/07/28 09:58:40;;;;;;;6.75;4.78;;;26.70;82.70;;;;;;5089623;28;20111;-74
2022/07/28 10:01:14;;;;;;;10.43;4.60;;;26.60;82.60;;;;;;5082778;28;20060;-75
2022/07/28 10:03:41;;;;;;;9.65;4.57;;;26.50;81.90;;;;;;5086415;28;20021;-75
2022/07/28 10:06:14;;;;;;;5.38;4.57;;;26.50;82.10;;;;;;5088929;28;20024;-75
2022/07/28 10:08:47;;;;;;;8.55;4.70;;;26.80;81.90;;;;;;5092061;28;20031;-76
2022/07/28 10:11:15;;;;;;;6.15;4.68;;;26.90;81.30;;;;;;5084215;28;20028;-76
2022/07/28 10:14:02;;;;;;;8.45;4.38;;;27.00;81.00;;;;;;5084755;28;20050;-75
2022/07/28 10:16:33;;;;;;;8.63;4.10;;;26.70;81.10;;;;;;5084667;28;20114;-76
2022/07/28 10:19:01;;;;;;;6.47;4.30;;;26.60;81.80;;;;;;5081090;28;20056;-74
2022/07/28 10:21:29;;;;;;;9.98;4.45;;;26.40;81.70;;;;;;5092008;28;20102;-73
2022/07/28 10:23:58;;;;;;;15.13;4.53;;;26.50;82.10;;;;;;5084915;28;20450;-78
2022/07/28 10:26:30;;;;;;;4.78;4.30;;;26.70;82.20;;;;;;5088460;28;20103;-74
2022/07/28 10:28:56;;;;;;;6.88;4.63;;;27.00;80.80;;;;;;5083407;28;20503;-76
2022/07/28 10:31:37;;;;;;;6.97;5.05;;;27.20;80.00;;;;;;5090616;28;20476;-74
2022/07/28 10:34:08;;;;;;;10.02;4.68;;;27.50;98.40;;;;;;5078716;28;20044;-81
2022/07/28 10:36:35;;;;;;;6.85;4.30;;;27.60;97.40;;;;;;5090317;28;20457;-73
2022/07/28 10:39:11;;;;;;;6.03;4.03;;;27.70;97.10;;;;;;5088210;28;20119;-79
2022/07/28 10:41:42;;;;;;;10.10;4.07;;;27.80;95.70;;;;;;5085500;28;20469;-83
2022/07/28 10:44:08;;;;;;;;;;;28.10;93.90;;;;;;5088018;28;20027;-83
2022/07/28 10:46:36;;;;;;;8.18;4.90;;;28.20;93.80;;;;;;5084161;28;19956;-82
2022/07/28 10:49:02;;;;;;;7.10;3.88;;;28.30;77.20;;;;;;5095024;28;20035;-79
2022/07/28 10:51:28;;;;;;;6.35;3.75;;;28.30;76.60;;;;;;5101556;28;20388;-80
2022/07/28 10:54:14;;;;;;;9.40;3.85;;;;;;;;;;5091411;28;20039;-77
2022/07/28 10:56:55;;;;;;;6.18;4.28;;;28.90;92.70;;;;;;5081660;28;20085;-77
2022/07/28 10:59:44;;;;;;;4.43;3.45;;;28.80;76.50;;;;;;5096751;28;20047;-78
2022/07/28 11:02:45;;;;;;;5.30;3.83;;;28.80;76.00;;;;;;5095065;28;20024;-78
2022/07/28 11:05:31;;;;;;;6.70;4.25;;;28.90;75.90;;;;;;5089517;28;20031;-77
2022/07/28 11:08:00;;;;;;;4.40;3.97;;;28.70;75.20;;;;;;5083456;28;20036;-73
2022/07/28 11:10:27;;;;;;;9.57;4.03;;;28.70;75.00;;;;;;5088478;28;20040;-78
2022/07/28 11:12:54;;;;;;;8.73;3.58;;;28.80;74.50;;;;;;5090653;28;20032;-78
2022/07/28 11:15:29;;;;;;;7.03;4.20;;;29.00;73.70;;;;;;5094346;28;20024;-78
2022/07/28 11:18:03;;;;;;;5.75;3.92;;;29.20;73.40;;;;;;5097692;28;20051;-72
2022/07/28 11:20:55;;;;;;;4.32;3.47;;;29.30;73.20;;;;;;5091093;28;20040;-78
2022/07/28 11:23:45;;;;;;;9.88;4.45;;;29.50;72.70;;;;;;5093223;28;20027;-76
2022/07/28 11:26:23;;;;;;;6.35;3.53;;;29.80;72.60;;;;;;5082316;28;20035;-77
2022/07/28 11:29:04;;;;;;;8.75;4.35;;;30.30;71.70;;;;;;5084677;28;20052;-77
2022/07/28 11:31:47;;;;;;;5.57;3.78;;;30.60;70.00;;;;;;5083176;28;20385;-77
2022/07/28 11:34:18;;;;;;;7.90;3.60;;;30.50;68.90;;;;;;5087424;28;20067;-77
2022/07/28 11:37:05;;;;;;;24.88;3.85;;;30.50;68.10;;;;;;5088900;28;20028;-78
2022/07/28 11:39:38;;;;;;;7.28;3.33;;;30.60;68.70;;;;;;5092370;28;20040;-77
2022/07/28 11:42:27;;;;;;;5.32;3.75;;;30.70;68.50;;;;;;5078412;28;20043;-78
2022/07/28 11:44:54;;;;;;;31.73;4.28;;;30.60;67.00;;;;;;5092687;28;20027;-78
2022/07/28 11:47:22;;;;;;;12.10;3.83;;;30.70;66.90;;;;;;5085966;28;20184;-77
2022/07/28 11:50:13;;;;;;;9.60;4.28;;;31.00;67.90;;;;;;5091188;28;20043;-78
2022/07/28 11:52:55;;;;;;;4.95;3.88;;;31.30;67.60;;;;;;5083071;28;20032;-78
2022/07/28 11:55:21;;;;;;;4.80;3.10;;;31.30;66.00;;;;;;5091800;28;20077;-78
2022/07/28 11:57:47;;;;;;;5.72;3.58;;;31.10;66.00;;;;;;5080664;28;20025;-76
2022/07/28 12:00:21;;;;;;;6.93;3.70;;;31.20;66.30;;;;;;5081412;28;20157;-75
2022/07/28 12:02:47;;;;;;;6.47;2.92;;;31.40;65.20;;;;;;5089633;28;20031;-77
2022/07/28 12:05:14;;;;;;;6.35;3.10;;;31.50;64.30;;;;;;5085684;28;20037;-75
2022/07/28 12:07:46;;;;;;;6.47;3.38;;;31.60;64.60;;;;;;5089432;28;20021;-76
2022/07/28 12:10:30;;;;;;;6.97;3.50;;;31.70;64.10;;;;;;5085034;28;20040;-78
2022/07/28 12:12:58;;;;;;;7.07;3.63;;;31.70;63.90;;;;;;5087216;28;20047;-72
2022/07/28 12:15:25;;;;;;;7.25;3.50;;;31.70;64.40;;;;;;5092190;28;20023;-78
2022/07/28 12:17:51;;;;;;;3.63;2.70;;;31.80;63.50;;;;;;5087162;28;20125;-78
2022/07/28 12:20:18;;;;;;;5.30;2.40;;;31.90;62.10;;;;;;5094143;28;20649;-77
2022/07/28 12:23:05;;;;;;;4.57;2.95;;;31.90;61.50;;;;;;5098320;28;20107;-79
2022/07/28 12:25:45;;;;;;;10.70;3.10;;;32.10;61.00;;;;;;5081475;28;20076;-79
2022/07/28 12:28:19;;;;;;;5.00;2.78;;;32.50;60.80;;;;;;5100008;27;20106;-79
2022/07/28 12:30:45;;;;;;;6.07;2.85;;;32.40;59.80;;;;;;5090660;28;20122;-76
2022/07/28 12:33:23;;;;;;;5.25;2.85;;;32.40;60.40;;;;;;5087104;28;20028;-79
2022/07/28 12:35:55;;;;;;;4.47;2.92;;;32.30;59.80;;;;;;5086152;28;20032;-78
2022/07/28 12:38:23;;;;;;;5.05;3.17;;;32.20;59.30;;;;;;5082296;28;20020;-77
2022/07/28 12:40:49;;;;;;;3.97;2.80;;;32.30;60.40;;;;;;5085689;28;20031;-76
2022/07/28 12:43:26;;;;;;;4.15;3.78;;;32.20;60.90;;;;;;5083866;28;20036;-76
2022/07/28 12:45:53;;;;;;;4.03;2.90;;;32.20;61.10;;;;;;5089628;28;20028;-76
2022/07/28 12:48:19;;;;;;;5.13;2.88;;;32.30;60.20;;;;;;5091147;28;20029;-76
2022/07/28 12:50:46;;;;;;;7.60;3.30;;;32.30;59.40;;;;;;5091498;28;20039;-79
2022/07/28 12:53:13;;;;;;;4.60;3.67;;;32.10;59.40;;;;;;5092354;28;20043;-76
2022/07/28 12:55:42;;;;;;;5.90;2.85;;;31.80;60.10;;;;;;5089595;28;20477;-74
2022/07/28 12:58:21;;;;;;;3.00;2.55;;;31.70;58.90;;;;;;5086036;28;20471;-76
2022/07/28 13:00:49;;;;;;;3.40;3.00;;;31.50;58.90;;;;;;5089863;28;20177;-76
2022/07/28 13:03:28;;;;;;;3.38;2.95;;;31.40;59.40;;;;;;5094863;28;20028;-76